Terminal Aerodrome Forecast
Issued by NWS

Home | Current Version | Previous Version | Text Only | Print | Product List | Glossary On
Versions: 1 2 3 4 5 6 7 8 9 10 11 12 13 14 15 16 17 18 19 20 21 22 23 24 25
000
FTUS45 KPSR 271100
TAFIWA
TAF
KIWA 271122Z 2712/2812 13008KT P6SM FEW250
     FM272100 25010KT P6SM FEW200 SCT250
     FM280400 12010KT P6SM FEW150 BKN250
     FM281100 14011KT P6SM SCT060 BKN150
      AMD LTD TO CLD VIS AND WIND TIL 271300=

USA.gov is the U.S. government's official web portal to all federal, state and local government web resources and services.